Time;durP1;ratioP1;P1;durP2;ratioP2;P2;SDS_P1;SDS_P2;PMS_P1;PMS_P2;Temp;Humidity;BMP_temperature;BMP_pressure;BME280_temperature;BME280_humidity;BME280_pressure;Samples;Min_cycle;Max_cycle;Signal;HPM_P1;HPM_P2
2023/03/10 00:01:27;;;;;;;;;;;;;;;14.35;55.37;100192.73;106903;1271;24249;-50
2023/03/10 00:03:56;;;;;;;4.00;3.30;;;;;;;14.40;55.12;100192.16;106824;1270;26576;-51
2023/03/10 00:06:25;;;;;;;4.40;3.30;;;;;;;14.42;55.04;100193.09;106852;1270;25685;-50
2023/03/10 00:08:54;;;;;;;7.00;3.80;;;;;;;14.43;54.96;100198.47;106914;1273;25300;-50
2023/03/10 00:11:22;;;;;;;6.20;4.00;;;;;;;14.42;54.94;100197.99;106893;1270;22577;-50
2023/03/10 00:13:52;;;;;;;6.40;3.90;;;;;;;14.44;54.78;100201.74;106770;1276;22524;-50
2023/03/10 00:16:23;;;;;;;6.00;3.90;;;;;;;14.37;54.95;100205.21;106814;1269;25347;-51
2023/03/10 00:18:52;;;;;;;4.60;3.30;;;;;;;14.42;54.83;100210.58;106967;1269;25335;-50
2023/03/10 00:21:23;;;;;;;6.10;4.00;;;;;;;14.36;55.02;100218.02;106842;1269;25350;-51
2023/03/10 00:23:55;;;;;;;6.30;4.30;;;;;;;14.27;55.16;100220.81;106823;1276;22534;-50
2023/03/10 00:26:26;;;;;;;6.10;4.30;;;;;;;14.26;55.30;100218.06;106163;1273;1003038;-50
2023/03/10 00:28:54;;;;;;;4.70;4.10;;;;;;;14.26;55.34;100224.73;106868;1273;26183;-50
2023/03/10 00:31:24;;;;;;;6.40;4.20;;;;;;;14.23;55.47;100228.52;106876;1271;22536;-51
2023/03/10 00:33:54;;;;;;;5.00;4.00;;;;;;;14.23;55.44;100231.67;106835;1270;25493;-50
2023/03/10 00:36:26;;;;;;;4.80;3.80;;;;;;;14.25;55.47;100225.29;106707;1261;25362;-50
2023/03/10 00:38:55;;;;;;;6.10;4.10;;;;;;;14.25;55.45;100228.23;106872;1269;24281;-51
2023/03/10 00:41:31;;;;;;;6.10;3.70;;;;;;;14.25;55.50;100224.59;106918;1268;25526;-50
2023/03/10 00:44:00;;;;;;;5.10;4.00;;;;;;;14.30;55.38;100223.86;106792;1273;25359;-50
2023/03/10 00:46:31;;;;;;;5.40;4.20;;;;;;;14.39;55.08;100222.07;106769;1273;25349;-50
2023/03/10 00:49:01;;;;;;;7.50;4.00;;;;;;;14.42;55.05;100221.93;106960;1268;22527;-50
2023/03/10 00:51:30;;;;;;;4.90;3.80;;;;;;;14.42;55.14;100214.92;106103;1269;1002440;-50
2023/03/10 00:54:00;;;;;;;6.70;4.20;;;;;;;14.44;55.23;100215.88;106863;1270;22530;-50
2023/03/10 00:56:29;;;;;;;4.80;3.90;;;;;;;14.45;55.25;100215.48;106778;1273;22528;-50
2023/03/10 00:59:00;;;;;;;8.10;4.00;;;;;;;14.46;55.35;100219.09;106787;1270;25374;-50
2023/03/10 01:01:32;;;;;;;6.20;3.90;;;;;;;14.47;55.49;100211.92;106933;1270;25318;-50
2023/03/10 01:04:06;;;;;;;7.80;4.70;;;;;;;14.47;55.88;100216.60;106783;1269;25350;-50
2023/03/10 01:06:34;;;;;;;6.40;4.30;;;;;;;14.46;56.18;100215.77;106846;1269;25354;-50
2023/03/10 01:09:04;;;;;;;5.20;4.40;;;;;;;14.49;56.35;100219.86;106947;1271;25408;-50
2023/03/10 01:11:33;;;;;;;6.40;4.20;;;;;;;14.41;56.79;100230.88;106875;1268;26498;-50
2023/03/10 01:14:04;;;;;;;6.90;3.90;;;;;;;14.38;57.06;100240.41;106818;1269;25356;-51
2023/03/10 01:16:32;;;;;;;11.70;4.70;;;;;;;14.41;57.12;100248.30;106830;1274;22524;-51
2023/03/10 01:19:01;;;;;;;8.00;4.70;;;;;;;14.47;57.02;100260.44;106830;1270;25483;-50
2023/03/10 01:21:31;;;;;;;9.80;5.00;;;;;;;14.47;56.77;100265.50;106935;1269;25367;-50
2023/03/10 01:24:00;;;;;;;9.40;5.30;;;;;;;14.43;56.64;100268.61;106703;1270;25363;-50
2023/03/10 01:26:29;;;;;;;12.10;5.50;;;;;;;14.38;56.83;100267.80;106900;1268;25351;-50
2023/03/10 01:28:57;;;;;;;9.90;4.60;;;;;;;14.36;56.95;100268.98;107044;1270;22519;-51
2023/03/10 01:31:26;;;;;;;12.80;5.70;;;;;;;14.32;57.14;100267.21;106845;1270;25470;-50
2023/03/10 01:33:56;;;;;;;9.80;5.00;;;;;;;14.29;57.35;100263.67;106858;1269;25582;-51
2023/03/10 01:36:27;;;;;;;7.90;5.30;;;;;;;14.26;57.37;100257.84;106686;1269;25331;-50
2023/03/10 01:38:56;;;;;;;10.10;4.90;;;;;;;14.22;57.50;100255.94;106872;1269;25353;-51
2023/03/10 01:41:25;;;;;;;10.00;5.00;;;;;;;14.17;57.85;100261.75;106870;1270;24349;-51
2023/03/10 01:43:55;;;;;;;9.30;5.30;;;;;;;14.14;58.04;100265.38;106659;1277;22656;-50
2023/03/10 01:46:33;;;;;;;7.20;4.50;;;;;;;14.12;58.21;100262.69;106916;1270;22534;-50
2023/03/10 01:49:10;;;;;;;6.80;4.60;;;;;;;14.14;58.32;100264.34;106827;1268;22541;-50
2023/03/10 01:51:40;;;;;;;7.20;5.00;;;;;;;14.14;58.31;100271.98;106946;1268;25343;-51
2023/03/10 01:54:10;;;;;;;5.80;4.50;;;;;;;14.16;58.35;100281.66;106715;1268;22514;-51
2023/03/10 01:56:38;;;;;;;5.70;4.40;;;;;;;14.16;58.40;100286.38;106881;1262;24358;-51
2023/03/10 01:59:08;;;;;;;6.80;4.30;;;;;;;14.17;58.35;100287.41;106767;1273;25315;-50
2023/03/10 02:01:38;;;;;;;5.80;4.70;;;;;;;14.18;58.34;100286.48;106841;1273;25403;-50
2023/03/10 02:04:22;;;;;;;6.60;4.50;;;;;;;14.19;58.18;100285.04;106877;1270;25358;-50
2023/03/10 02:06:50;;;;;;;6.50;4.50;;;;;;;14.21;58.12;100291.41;106765;1270;22554;-50
2023/03/10 02:09:20;;;;;;;5.50;4.40;;;;;;;14.17;58.04;100296.80;106882;1269;25422;-50
2023/03/10 02:11:48;;;;;;;5.20;4.70;;;;;;;14.18;57.96;100303.04;106882;1270;25342;-50
2023/03/10 02:14:18;;;;;;;8.60;5.20;;;;;;;14.17;57.98;100307.44;106749;1269;26512;-50
2023/03/10 02:16:47;;;;;;;5.80;4.30;;;;;;;14.07;58.32;100306.48;106680;1275;25412;-51
2023/03/10 02:19:22;;;;;;;5.60;4.40;;;;;;;14.06;58.43;100310.55;106714;1273;25380;-50
2023/03/10 02:22:00;;;;;;;5.30;4.00;;;;;;;14.05;58.43;100317.23;106812;1277;24409;-50
2023/03/10 02:24:34;;;;;;;6.90;4.70;;;;;;;14.07;58.39;100318.02;106397;1273;24221;-51
2023/03/10 02:27:29;;;;;;;6.30;4.70;;;;;;;14.10;58.34;100320.16;106581;1273;25365;-52
2023/03/10 02:30:18;;;;;;;6.40;4.90;;;;;;;14.10;58.35;100322.58;106670;1272;22530;-51
2023/03/10 02:32:54;;;;;;;6.60;5.00;;;;;;;14.10;58.35;100323.99;106725;1272;22669;-51
2023/03/10 02:35:23;;;;;;;7.00;4.20;;;;;;;14.09;58.29;100331.86;106725;1272;25367;-51
2023/03/10 02:37:58;;;;;;;7.20;5.20;;;;;;;14.09;58.30;100336.95;106720;1272;25432;-51
2023/03/10 02:40:39;;;;;;;6.50;5.00;;;;;;;14.07;58.38;100342.94;106699;1272;22637;-51
2023/03/10 02:43:26;;;;;;;6.10;5.00;;;;;;;14.06;58.44;100350.14;106668;1276;25325;-50
2023/03/10 02:46:01;;;;;;;5.10;4.30;;;;;;;14.05;58.43;100352.48;106743;1273;22526;-51
2023/03/10 02:48:32;;;;;;;6.40;4.40;;;;;;;14.04;58.45;100352.84;106778;1276;22516;-50
2023/03/10 02:51:08;;;;;;;5.70;4.90;;;;;;;14.03;58.58;100362.66;106812;1273;22548;-50
2023/03/10 02:53:37;;;;;;;5.20;4.70;;;;;;;14.03;58.71;100366.33;106874;1269;22544;-51
2023/03/10 02:56:05;;;;;;;8.30;4.70;;;;;;;14.02;58.75;100375.07;106923;1269;25396;-51
2023/03/10 02:58:35;;;;;;;5.90;4.70;;;;;;;14.00;58.75;100387.04;106937;1269;25324;-51
2023/03/10 03:01:07;;;;;;;5.00;4.50;;;;;;;13.98;58.79;100394.42;106807;1266;25327;-50
2023/03/10 03:03:39;;;;;;;7.20;4.80;;;;;;;13.91;59.04;100399.23;106956;1270;25402;-51
2023/03/10 03:06:08;;;;;;;5.10;4.30;;;;;;;13.94;58.97;100406.63;106882;1269;25328;-51
2023/03/10 03:08:37;;;;;;;6.30;4.60;;;;;;;13.88;59.15;100410.00;106851;1268;25359;-51
2023/03/10 03:11:07;;;;;;;7.20;4.60;;;;;;;13.91;59.11;100406.40;106860;1268;22636;-50
2023/03/10 03:13:36;;;;;;;7.70;5.40;;;;;;;13.91;59.13;100404.31;106818;1273;25359;-51
2023/03/10 03:16:07;;;;;;;10.40;7.20;;;;;;;13.89;59.15;100403.15;106824;1268;25367;-50
2023/03/10 03:18:37;;;;;;;;;;;;;;;13.87;59.15;100404.98;106746;1269;24360;-51
2023/03/10 03:21:09;;;;;;;11.90;9.00;;;;;;;13.83;59.29;100400.45;106845;1269;22644;-50
2023/03/10 03:23:39;;;;;;;13.10;7.40;;;;;;;13.80;59.31;100400.59;106856;1270;25352;-51
2023/03/10 03:26:22;;;;;;;6.70;6.00;;;;;;;13.77;59.28;100404.88;106888;1271;25397;-50
2023/03/10 03:28:55;;;;;;;8.50;6.40;;;;;;;13.77;59.18;100405.42;106895;1269;24373;-50
2023/03/10 03:31:27;;;;;;;7.20;5.80;;;;;;;13.74;59.20;100401.17;106862;1268;25332;-50
2023/03/10 03:34:06;;;;;;;8.60;6.20;;;;;;;13.75;59.11;100400.27;106762;1274;25479;-50
2023/03/10 03:36:36;;;;;;;10.60;5.80;;;;;;;13.74;58.92;100402.91;106563;1276;25348;-50
2023/03/10 03:39:06;;;;;;;7.90;5.40;;;;;;;13.72;58.88;100410.48;106818;1254;25644;-50
2023/03/10 03:41:36;;;;;;;7.10;5.40;;;;;;;13.70;58.84;100417.54;106824;1268;26485;-50
2023/03/10 03:44:05;;;;;;;8.30;5.30;;;;;;;13.67;58.93;100417.14;106670;1269;25366;-51
2023/03/10 03:46:34;;;;;;;5.40;4.70;;;;;;;13.70;58.76;100423.14;106915;1273;23003;-50
2023/03/10 03:49:02;;;;;;;6.20;4.90;;;;;;;13.68;58.67;100428.96;106843;1271;25287;-50
2023/03/10 03:51:35;;;;;;;5.50;4.90;;;;;;;13.65;58.68;100435.02;106861;1268;25422;-50
2023/03/10 03:54:04;;;;;;;7.70;4.90;;;;;;;13.63;58.76;100437.38;106861;1257;25491;-51
2023/03/10 03:56:34;;;;;;;7.00;5.10;;;;;;;13.60;58.73;100440.80;106897;1269;25435;-50
2023/03/10 03:59:04;;;;;;;10.00;5.70;;;;;;;13.57;58.72;100445.42;107000;1269;25358;-50
2023/03/10 04:01:32;;;;;;;8.60;5.50;;;;;;;13.55;58.78;100449.71;106774;1269;22515;-52
2023/03/10 04:04:01;;;;;;;13.30;5.10;;;;;;;13.53;58.87;100447.88;106857;1271;22558;-50
2023/03/10 04:06:30;;;;;;;5.30;4.80;;;;;;;13.51;58.75;100449.52;106777;1269;25328;-50
2023/03/10 04:08:59;;;;;;;6.90;4.80;;;;;;;13.47;58.78;100451.41;106763;1270;25334;-51
2023/03/10 04:11:29;;;;;;;8.40;4.90;;;;;;;13.41;58.94;100454.92;106941;1268;24210;-50
2023/03/10 04:13:57;;;;;;;6.50;4.70;;;;;;;13.36;59.12;100456.36;106830;1276;22521;-50
2023/03/10 04:16:26;;;;;;;6.10;5.00;;;;;;;13.37;59.15;100462.05;106862;1269;25349;-50
2023/03/10 04:18:55;;;;;;;6.60;4.70;;;;;;;13.37;59.16;100464.86;106863;1269;22581;-50
2023/03/10 04:21:25;;;;;;;6.60;5.20;;;;;;;13.28;59.43;100465.71;106931;1269;25353;-50
2023/03/10 04:23:55;;;;;;;4.90;4.40;;;;;;;13.30;59.49;100474.52;106766;1273;22536;-50
2023/03/10 04:26:25;;;;;;;7.90;4.90;;;;;;;13.29;59.47;100477.72;106819;1273;25332;-49
2023/03/10 04:28:56;;;;;;;4.90;4.40;;;;;;;13.25;59.59;100479.77;106106;1272;1003597;-50
2023/03/10 04:31:28;;;;;;;9.10;4.90;;;;;;;13.24;59.68;100487.83;106860;1269;25502;-50
2023/03/10 04:33:59;;;;;;;6.50;5.60;;;;;;;13.22;59.84;100491.36;106845;1271;22529;-50
2023/03/10 04:36:28;;;;;;;6.70;5.20;;;;;;;13.20;60.08;100496.84;106838;1270;25346;-50
2023/03/10 04:38:57;;;;;;;6.60;5.40;;;;;;;13.19;60.21;100503.88;106793;1270;22530;-50
2023/03/10 04:41:30;;;;;;;7.10;5.20;;;;;;;13.17;60.27;100507.60;106860;1269;25359;-50
2023/03/10 04:44:02;;;;;;;6.40;5.00;;;;;;;13.14;60.36;100511.70;106635;1270;26556;-51
2023/03/10 04:46:31;;;;;;;9.20;5.60;;;;;;;13.11;60.33;100512.50;106684;1269;25367;-49
2023/03/10 04:49:02;;;;;;;7.40;5.60;;;;;;;13.11;60.24;100520.00;106977;1268;24219;-50
2023/03/10 04:51:31;;;;;;;6.80;5.30;;;;;;;13.09;60.15;100523.36;106890;1268;22658;-49
2023/03/10 04:54:00;;;;;;;8.20;5.40;;;;;;;13.07;60.20;100523.10;106808;1268;25401;-50
2023/03/10 04:56:35;;;;;;;6.30;4.40;;;;;;;13.06;60.12;100528.86;106932;1268;25365;-50
2023/03/10 04:59:04;;;;;;;6.00;5.10;;;;;;;13.05;60.11;100532.20;106961;1268;25361;-50
2023/03/10 05:01:33;;;;;;;5.90;5.30;;;;;;;13.04;60.09;100536.59;106191;1272;1002747;-50
2023/03/10 05:04:05;;;;;;;;;;;;;;;13.04;60.14;100540.94;106860;1268;22567;-50
2023/03/10 05:06:33;;;;;;;6.30;5.30;;;;;;;13.03;60.20;100545.66;106924;1268;25359;-50
2023/03/10 05:09:12;;;;;;;6.70;5.00;;;;;;;13.00;60.16;100549.94;106866;1269;25371;-50
2023/03/10 05:11:42;;;;;;;5.20;4.70;;;;;;;12.96;60.29;100554.77;106820;1268;25332;-51
2023/03/10 05:14:11;;;;;;;7.10;4.90;;;;;;;12.93;60.31;100554.20;106659;1277;26497;-50
2023/03/10 05:16:40;;;;;;;7.10;5.30;;;;;;;12.90;60.51;100560.75;106079;1269;1003759;-50
2023/03/10 05:19:09;;;;;;;6.30;5.40;;;;;;;12.87;60.70;100562.95;106825;1268;26514;-50
2023/03/10 05:21:40;;;;;;;6.40;5.10;;;;;;;12.88;60.78;100565.35;106689;1268;25373;-50
2023/03/10 05:24:09;;;;;;;6.60;5.30;;;;;;;12.89;60.65;100565.48;106385;1276;25300;-50
2023/03/10 05:26:38;;;;;;;5.80;4.90;;;;;;;12.88;60.68;100569.84;106672;1268;24379;-50
2023/03/10 05:29:09;;;;;;;7.90;5.00;;;;;;;12.88;60.70;100569.70;106805;1276;25040;-50
2023/03/10 05:31:51;;;;;;;6.00;4.70;;;;;;;12.89;60.80;100572.62;106831;1274;25358;-50
2023/03/10 05:34:30;;;;;;;5.60;4.80;;;;;;;12.92;60.78;100573.39;106453;1274;25409;-50
2023/03/10 05:37:00;;;;;;;8.00;5.00;;;;;;;12.94;60.80;100579.59;106857;1270;22650;-50
2023/03/10 05:39:29;;;;;;;6.00;5.00;;;;;;;12.92;60.90;100584.86;106950;1269;25354;-50
2023/03/10 05:42:00;;;;;;;6.30;5.30;;;;;;;12.94;60.85;100583.93;106790;1270;24205;-50
2023/03/10 05:44:30;;;;;;;7.00;5.30;;;;;;;12.97;60.75;100586.97;106840;1268;22522;-50
2023/03/10 05:47:01;;;;;;;7.60;5.10;;;;;;;12.98;60.75;100594.74;106797;1273;25371;-50
2023/03/10 05:49:30;;;;;;;9.10;5.30;;;;;;;13.02;60.70;100597.41;106850;1272;25289;-50
2023/03/10 05:51:59;;;;;;;8.30;5.70;;;;;;;13.05;60.73;100603.95;106912;1269;25351;-50
2023/03/10 05:54:27;;;;;;;6.60;5.00;;;;;;;13.11;60.76;100607.44;106871;1268;25246;-49
2023/03/10 05:56:56;;;;;;;6.50;5.10;;;;;;;13.15;60.52;100613.77;106864;1269;25342;-50
2023/03/10 05:59:27;;;;;;;6.00;4.60;;;;;;;13.13;60.32;100611.54;106856;1269;23891;-50
2023/03/10 06:01:55;;;;;;;6.10;4.20;;;;;;;13.14;60.25;100616.21;106626;1269;22639;-50
2023/03/10 06:04:27;;;;;;;5.80;4.50;;;;;;;13.14;60.23;100615.33;106842;1273;22528;-50
2023/03/10 06:06:55;;;;;;;5.00;4.30;;;;;;;13.17;59.98;100621.52;106806;1271;22534;-49
2023/03/10 06:09:25;;;;;;;6.50;4.60;;;;;;;13.19;59.73;100624.73;106889;1269;25370;-50
2023/03/10 06:11:58;;;;;;;6.20;4.40;;;;;;;13.21;59.58;100634.23;106676;1270;25408;-50
2023/03/10 06:14:26;;;;;;;4.70;4.20;;;;;;;13.22;59.65;100632.11;106728;1277;24299;-50
2023/03/10 06:16:55;;;;;;;4.40;4.00;;;;;;;13.20;59.70;100636.02;106794;1269;22612;-50
2023/03/10 06:19:26;;;;;;;5.30;4.70;;;;;;;13.19;59.67;100648.79;106863;1268;25345;-50
2023/03/10 06:21:55;;;;;;;6.30;4.50;;;;;;;13.21;59.64;100654.80;106811;1268;24342;-49
2023/03/10 06:24:23;;;;;;;4.50;4.10;;;;;;;13.25;59.64;100653.95;106743;1273;24245;-49
2023/03/10 06:26:52;;;;;;;4.40;3.90;;;;;;;13.36;59.71;100661.42;106866;1268;25355;-49
2023/03/10 06:29:20;;;;;;;5.00;4.50;;;;;;;13.52;59.15;100663.98;106796;1268;25406;-50
2023/03/10 06:31:49;;;;;;;5.10;4.20;;;;;;;13.64;58.80;100666.71;106736;1270;25342;-49
2023/03/10 06:34:18;;;;;;;5.40;4.40;;;;;;;13.68;58.36;100668.63;106793;1271;25397;-49
2023/03/10 06:36:47;;;;;;;4.90;4.00;;;;;;;13.67;58.31;100677.92;106897;1268;25370;-49
2023/03/10 06:39:15;;;;;;;5.20;4.10;;;;;;;13.69;58.34;100672.63;106883;1269;22518;-49
2023/03/10 06:41:43;;;;;;;4.90;3.80;;;;;;;13.74;58.19;100670.52;106855;1268;25345;-50
2023/03/10 06:44:17;;;;;;;4.70;4.10;;;;;;;13.80;57.98;100674.30;106798;1269;23158;-50
2023/03/10 06:46:46;;;;;;;4.40;4.00;;;;;;;13.78;57.62;100676.30;106814;1273;24366;-50
2023/03/10 06:49:14;;;;;;;5.10;4.50;;;;;;;13.69;57.61;100677.68;106881;1269;25361;-49
2023/03/10 06:51:43;;;;;;;4.50;4.10;;;;;;;13.57;57.77;100678.30;106833;1268;22517;-50
2023/03/10 06:54:11;;;;;;;5.40;4.30;;;;;;;13.51;58.18;100685.11;106887;1269;25339;-50
2023/03/10 06:56:40;;;;;;;3.80;3.50;;;;;;;13.58;58.58;100687.69;106895;1269;25351;-50
2023/03/10 06:59:09;;;;;;;4.20;3.80;;;;;;;13.77;58.35;100690.46;106760;1275;25349;-50
2023/03/10 07:01:38;;;;;;;4.80;4.30;;;;;;;14.01;57.96;100691.00;106843;1267;24268;-50
2023/03/10 07:04:07;;;;;;;4.80;4.00;;;;;;;14.23;57.32;100690.30;106877;1270;25406;-51
2023/03/10 07:06:38;;;;;;;4.70;3.80;;;;;;;14.45;56.77;100685.13;106864;1268;25407;-50
2023/03/10 07:09:20;;;;;;;4.20;3.80;;;;;;;14.65;55.94;100682.59;106674;1273;25354;-50
2023/03/10 07:11:49;;;;;;;4.40;4.00;;;;;;;14.80;55.34;100687.21;106811;1271;25358;-50
2023/03/10 07:14:18;;;;;;;4.40;3.90;;;;;;;14.97;54.70;100690.06;106700;1269;202983;-50
2023/03/10 07:16:46;;;;;;;3.90;3.50;;;;;;;15.14;54.14;100688.10;106791;1273;25345;-50
2023/03/10 07:19:15;;;;;;;3.40;3.10;;;;;;;15.33;53.47;100685.38;106848;1268;22524;-50
2023/03/10 07:21:43;;;;;;;4.60;4.10;;;;;;;15.45;52.63;100680.18;106807;1269;25356;-50
2023/03/10 07:24:12;;;;;;;4.80;3.80;;;;;;;15.46;52.35;100675.73;106809;1268;23859;-50
2023/03/10 07:26:41;;;;;;;4.40;4.00;;;;;;;15.45;52.05;100674.60;106861;1268;25284;-50
2023/03/10 07:29:11;;;;;;;5.60;3.90;;;;;;;15.41;51.84;100677.88;106753;1271;26019;-50
2023/03/10 07:31:39;;;;;;;5.20;4.00;;;;;;;15.35;51.92;100680.22;106919;1268;25465;-50
2023/03/10 07:34:09;;;;;;;3.50;3.20;;;;;;;15.28;52.08;100683.84;106772;1268;25533;-50
2023/03/10 07:36:38;;;;;;;3.90;3.50;;;;;;;15.25;52.10;100687.10;106855;1268;25420;-50
2023/03/10 07:39:06;;;;;;;3.80;3.20;;;;;;;15.24;52.18;100689.96;106865;1261;25334;-50
2023/03/10 07:41:35;;;;;;;3.40;3.10;;;;;;;15.23;52.02;100689.64;106831;1269;25357;-50
2023/03/10 07:44:04;;;;;;;3.40;3.10;;;;;;;15.21;52.02;100696.36;106819;1269;25363;-51
2023/03/10 07:46:33;;;;;;;5.50;3.80;;;;;;;15.18;51.93;100696.65;106826;1268;25362;-50
2023/03/10 07:49:05;;;;;;;4.20;3.80;;;;;;;15.16;51.90;100699.05;106917;1268;25382;-50
2023/03/10 07:51:34;;;;;;;4.60;3.70;;;;;;;15.14;52.01;100703.45;106864;1269;25362;-50
2023/03/10 07:54:03;;;;;;;3.90;3.60;;;;;;;15.16;51.85;100708.13;106858;1268;22533;-50
2023/03/10 07:56:32;;;;;;;5.20;3.80;;;;;;;15.15;51.65;100713.91;106028;1270;1003058;-50
2023/03/10 07:59:01;;;;;;;4.70;3.60;;;;;;;15.13;51.70;100718.70;106781;1268;25359;-50
2023/03/10 08:01:34;;;;;;;5.20;4.50;;;;;;;15.09;51.62;100719.08;106790;1269;25408;-50
2023/03/10 08:04:05;;;;;;;3.90;3.50;;;;;;;15.06;51.65;100718.84;106798;1268;22641;-50
2023/03/10 08:06:34;;;;;;;4.50;3.90;;;;;;;15.09;51.80;100724.48;106865;1268;24853;-50
2023/03/10 08:09:03;;;;;;;5.00;4.40;;;;;;;15.11;51.93;100723.51;106802;1268;23098;-50
2023/03/10 08:11:32;;;;;;;3.60;3.30;;;;;;;15.13;51.74;100720.27;106864;1268;25355;-50
2023/03/10 08:14:01;;;;;;;3.70;3.40;;;;;;;15.15;51.49;100716.55;106797;1276;25345;-50
2023/03/10 08:16:30;;;;;;;4.80;3.70;;;;;;;15.17;51.26;100715.93;106056;1269;1003008;-49
2023/03/10 08:18:59;;;;;;;4.30;3.90;;;;;;;15.17;51.14;100718.73;106818;1268;25345;-50
2023/03/10 08:21:28;;;;;;;4.50;4.10;;;;;;;15.14;51.00;100717.62;106926;1269;25565;-50
2023/03/10 08:23:58;;;;;;;3.90;3.60;;;;;;;15.16;50.83;100717.71;106830;1273;25362;-49
2023/03/10 08:26:26;;;;;;;4.00;3.60;;;;;;;15.17;50.62;100719.95;106813;1268;25334;-49
2023/03/10 08:28:55;;;;;;;4.20;3.70;;;;;;;15.19;50.88;100719.68;106811;1268;24211;-50
2023/03/10 08:31:23;;;;;;;5.20;4.00;;;;;;;15.21;50.82;100719.60;106847;1268;23072;-49
2023/03/10 08:33:55;;;;;;;3.90;3.60;;;;;;;15.25;50.73;100718.93;106996;1268;25374;-50
2023/03/10 08:36:29;;;;;;;5.50;3.90;;;;;;;15.28;50.92;100721.60;106831;1268;25410;-50
2023/03/10 08:38:59;;;;;;;4.10;3.70;;;;;;;15.34;50.53;100719.77;106820;1269;22666;-49
2023/03/10 08:41:30;;;;;;;4.10;3.70;;;;;;;15.38;50.23;100719.59;106773;1271;22534;-50
2023/03/10 08:43:59;;;;;;;5.10;3.70;;;;;;;15.41;50.05;100717.34;106757;1276;22524;-49
2023/03/10 08:46:28;;;;;;;4.30;3.80;;;;;;;15.48;49.85;100717.65;106865;1268;25389;-50
2023/03/10 08:48:57;;;;;;;4.50;3.80;;;;;;;15.53;49.57;100715.34;106727;1269;24218;-50
2023/03/10 08:51:26;;;;;;;5.60;4.30;;;;;;;15.56;49.44;100714.86;106024;1269;1003703;-50
2023/03/10 08:53:54;;;;;;;4.30;3.80;;;;;;;15.59;49.20;100721.53;106782;1273;24354;-51
2023/03/10 08:56:23;;;;;;;4.20;3.70;;;;;;;15.62;49.15;100729.45;106123;1268;1015748;-50
2023/03/10 08:58:55;;;;;;;5.80;4.30;;;;;;;15.64;49.15;100732.48;106850;1269;22543;-50
2023/03/10 09:01:29;;;;;;;4.20;3.70;;;;;;;15.68;49.18;100737.76;106763;1268;24392;-50
2023/03/10 09:03:58;;;;;;;4.50;3.60;;;;;;;15.73;48.85;100743.29;106906;1273;26378;-50
2023/03/10 09:06:27;;;;;;;4.00;3.30;;;;;;;15.78;48.58;100746.94;106816;1271;22576;-50
2023/03/10 09:08:55;;;;;;;3.80;3.40;;;;;;;15.85;48.38;100751.52;106840;1268;25370;-50
2023/03/10 09:11:30;;;;;;;3.90;3.50;;;;;;;15.89;48.20;100753.10;106945;1268;25523;-50
2023/03/10 09:13:59;;;;;;;3.50;3.10;;;;;;;15.95;48.14;100758.57;106721;1276;22601;-50
2023/03/10 09:16:31;;;;;;;3.60;3.30;;;;;;;16.06;47.35;100756.67;106753;1274;24347;-50
2023/03/10 09:19:00;;;;;;;4.00;3.30;;;;;;;16.18;46.87;100753.00;106856;1268;22543;-50
2023/03/10 09:21:29;;;;;;;4.00;3.30;;;;;;;16.24;46.45;100755.88;106781;1269;22533;-50
2023/03/10 09:24:01;;;;;;;4.60;3.20;;;;;;;16.33;46.20;100757.27;106824;1274;25563;-50
2023/03/10 09:26:29;;;;;;;3.40;2.70;;;;;;;16.36;45.97;100756.41;106533;1271;22533;-50
2023/03/10 09:29:03;;;;;;;3.90;2.80;;;;;;;16.39;45.64;100752.62;106578;1268;1002639;-50
2023/03/10 09:31:35;;;;;;;3.80;3.20;;;;;;;16.37;45.51;100748.13;106861;1268;23897;-50
2023/03/10 09:34:05;;;;;;;4.60;3.10;;;;;;;16.52;45.08;100750.42;106572;1273;22549;-50
2023/03/10 09:36:36;;;;;;;3.00;2.60;;;;;;;16.61;44.78;100753.17;106682;1274;25374;-51
2023/03/10 09:39:05;;;;;;;3.70;3.10;;;;;;;16.64;44.42;100755.17;106809;1276;22520;-51
2023/03/10 09:41:34;;;;;;;3.30;2.80;;;;;;;16.59;44.23;100757.98;106774;1269;25473;-50
2023/03/10 09:44:21;;;;;;;2.60;2.40;;;;;;;16.71;43.89;100758.32;106828;1269;25380;-51
2023/03/10 09:47:00;;;;;;;3.60;2.70;;;;;;;16.69;43.94;100756.50;107194;1253;24283;-52
2023/03/10 09:49:34;;;;;;;3.40;2.90;;;;;;;16.73;43.54;100753.66;107151;1268;23280;-52
2023/03/10 09:52:33;;;;;;;2.90;2.60;;;;;;;16.78;43.18;100752.55;107096;1261;22529;-52
2023/03/10 09:55:13;;;;;;;3.10;2.50;;;;;;;16.82;43.05;100744.81;106576;1266;24222;-51
2023/03/10 09:57:44;;;;;;;2.80;2.30;;;;;;;16.89;42.71;100741.14;106813;1275;25388;-55
2023/03/10 10:00:19;;;;;;;2.80;2.50;;;;;;;17.03;42.30;100739.06;106213;1281;24207;-51
2023/03/10 10:02:49;;;;;;;3.10;2.60;;;;;;;16.99;42.16;100734.03;106374;1275;22558;-51
2023/03/10 10:05:24;;;;;;;2.80;2.40;;;;;;;17.01;41.91;100733.23;106759;1266;22515;-52
2023/03/10 10:07:59;;;;;;;4.30;2.50;;;;;;;17.05;41.83;100731.59;106339;1276;25555;-50
2023/03/10 10:10:35;;;;;;;5.40;3.50;;;;;;;17.11;41.59;100735.02;106342;1277;22542;-54
2023/03/10 10:13:13;;;;;;;3.10;2.40;;;;;;;17.16;41.46;100730.39;106235;1279;22532;-51
2023/03/10 10:15:45;;;;;;;2.90;2.60;;;;;;;17.20;41.15;100729.98;105490;1279;1002913;-52
2023/03/10 10:18:14;;;;;;;3.40;2.30;;;;;;;17.23;40.75;100726.66;106161;1281;22527;-51
2023/03/10 10:20:57;;;;;;;2.50;2.30;;;;;;;17.25;40.83;100723.45;106380;1278;25811;-51
2023/03/10 10:23:33;;;;;;;3.10;2.50;;;;;;;17.26;40.69;100718.64;106718;1266;25359;-51
2023/03/10 10:26:11;;;;;;;3.40;2.20;;;;;;;17.27;40.57;100713.14;106690;1266;25354;-51
2023/03/10 10:28:56;;;;;;;3.00;2.30;;;;;;;17.31;40.62;100701.39;106763;1266;25527;-51
2023/03/10 10:31:30;;;;;;;2.50;2.30;;;;;;;17.34;40.52;100695.08;105975;1273;1002424;-51
2023/03/10 10:34:19;;;;;;;2.30;1.90;;;;;;;17.36;40.51;100683.95;106825;1269;25367;-51
2023/03/10 10:36:56;;;;;;;2.40;2.00;;;;;;;17.39;40.28;100683.59;107014;1270;22788;-51
2023/03/10 10:39:36;;;;;;;2.80;2.60;;;;;;;17.44;39.98;100679.83;107216;1268;24221;-50
2023/03/10 10:42:31;;;;;;;2.10;1.90;;;;;;;17.45;40.24;100678.57;106803;1262;25422;-50
2023/03/10 10:45:05;;;;;;;3.00;2.20;;;;;;;17.49;40.50;100677.84;106404;1278;24243;-50
2023/03/10 10:47:45;;;;;;;2.40;2.20;;;;;;;17.54;40.20;100674.80;106544;1278;22542;-50
2023/03/10 10:50:23;;;;;;;2.20;2.00;;;;;;;17.58;39.90;100672.50;106527;1268;25322;-50
2023/03/10 10:53:14;;;;;;;3.70;2.50;;;;;;;17.61;39.78;100664.42;106229;1283;24025;-50
2023/03/10 10:55:43;;;;;;;2.30;1.60;;;;;;;17.66;39.62;100657.48;106071;1277;24590;-51
2023/03/10 10:58:35;;;;;;;3.40;1.80;;;;;;;17.72;39.13;100651.58;105967;1274;22532;-51
2023/03/10 11:01:12;;;;;;;2.00;1.50;;;;;;;17.77;38.65;100648.50;105717;1283;22564;-51
2023/03/10 11:03:47;;;;;;;2.10;1.50;;;;;;;17.80;38.34;100643.21;105898;1283;22532;-50
2023/03/10 11:06:24;;;;;;;2.70;1.70;;;;;;;17.84;38.15;100639.18;105455;1288;22618;-49
2023/03/10 11:09:04;;;;;;;2.50;2.30;;;;;;;17.90;38.78;100641.31;105742;1283;25505;-52
2023/03/10 11:11:40;;;;;;;4.40;2.30;;;;;;;17.97;40.16;100633.06;106190;1277;22543;-50
2023/03/10 11:14:20;;;;;;;7.10;2.20;;;;;;;18.04;39.66;100628.80;105933;1283;25410;-52
2023/03/10 11:17:07;;;;;;;2.90;2.60;;;;;;;18.09;40.06;100629.73;106204;1283;25352;-52
2023/03/10 11:19:49;;;;;;;2.90;2.40;;;;;;;18.16;40.04;100635.15;105654;1290;24247;-49
2023/03/10 11:22:39;;;;;;;3.30;2.00;;;;;;;18.21;39.96;100636.98;106120;1275;22530;-50
2023/03/10 11:25:44;;;;;;;5.90;3.40;;;;;;;18.23;39.89;100640.74;106453;1267;25341;-50
2023/03/10 11:28:15;;;;;;;4.60;3.30;;;;;;;18.23;41.51;100644.42;106385;1275;26116;-51
2023/03/10 11:31:08;;;;;;;4.50;3.50;;;;;;;18.17;42.47;100642.29;106330;1278;25433;-51
2023/03/10 11:33:58;;;;;;;4.10;3.30;;;;;;;18.09;42.33;100637.80;106938;1265;25345;-50
2023/03/10 11:36:32;;;;;;;3.90;3.10;;;;;;;18.03;42.14;100629.89;106931;1273;25345;-51
2023/03/10 11:39:18;;;;;;;3.40;3.10;;;;;;;17.99;42.62;100633.29;106761;1274;25238;-51